Forside
METAR-TAF:

METAR-TAF

Lufthavne :

Madera Municipal Airport

Madera, Californien, USA

Breddekreds: 36-59-12N, længdekreds: 120-06-39W, højde: 77 m

Aktuelle vejr

Denne rapport blev lavet for 42 minutter siden, kl. 06:53 UTC
Vind stille
Temperatur 15°C
Fugtighed 67%
Tryk 1018 hPa
Sigt: 16.1 km
skyfri

METAR: KMAE 290653Z AUTO 00000KT 10SM CLR 15/09 A3005 RMK AO2 SLP173 T01500089

Tid: 23:35 (07:35 UTC)


TAF: fraværende

Vejrobservationer og prognoser fra mere end 4000 lufthavne (METAR og TAF).

De gule og røde prikker repræsenterer de meteorologiske stationer.

Flyt musen over at se navnet på stationen.

Så klik over at se vejr observationer og prognoser.

At skifte det kort: Klik på de grønne knapper med et sort kors for at zoome ind; på den grønne knap med en bindestreg for at zoome ud; eller på de grønne pile for tilstødende kort.


METAR-TAF: